Time;durP1;ratioP1;P1;durP2;ratioP2;P2;SDS_P1;SDS_P2;PMS_P1;PMS_P2;Temp;Humidity;BMP_temperature;BMP_pressure;BME280_temperature;BME280_humidity;BME280_pressure;Samples;Min_cycle;Max_cycle;Signal;HPM_P1;HPM_P2
2022/01/25 00:10:39;;;;;;;22.52;18.63;;;6.20;99.90;;;;;;5035949;28;20221;-54
2022/01/25 00:24:23;;;;;;;20.08;15.63;;;6.20;99.90;;;;;;5030652;28;20261;-53
2022/01/25 00:27:10;;;;;;;21.47;16.57;;;6.30;99.90;;;;;;5041296;28;20638;-51
2022/01/25 00:32:08;;;;;;;19.33;14.88;;;6.30;99.90;;;;;;5039379;28;20280;-52
2022/01/25 00:34:33;;;;;;;24.07;16.40;;;6.30;99.90;;;;;;5035756;28;20199;-47
2022/01/25 00:36:59;;;;;;;15.90;12.70;;;6.20;99.90;;;;;;5037508;28;20223;-54
2022/01/25 00:39:24;;;;;;;18.07;12.30;;;6.30;99.90;;;;;;5031275;28;20171;-52
2022/01/25 00:41:50;;;;;;;16.90;11.27;;;6.40;99.90;;;;;;5030655;28;20649;-50
2022/01/25 00:44:17;;;;;;;15.00;11.23;;;6.40;99.90;;;;;;5031436;28;20237;-56
2022/01/25 00:46:42;;;;;;;14.05;10.15;;;6.30;99.90;;;;;;5031580;28;20693;-51
2022/01/25 00:49:09;;;;;;;14.50;10.57;;;6.30;99.90;;;;;;5030188;28;20186;-53
2022/01/25 00:54:27;;;;;;;15.13;11.45;;;6.20;99.90;;;;;;5031266;28;20657;-48
2022/01/25 00:56:55;;;;;;;15.20;11.30;;;6.20;99.90;;;;;;5029222;28;20688;-50
2022/01/25 00:59:23;;;;;;;16.05;10.73;;;6.20;99.90;;;;;;5031048;28;20203;-50
2022/01/25 01:01:51;;;;;;;13.82;11.30;;;6.20;99.90;;;;;;5031267;28;20175;-54
2022/01/25 01:04:17;;;;;;;16.33;11.00;;;6.10;99.90;;;;;;5030351;28;20179;-50
2022/01/25 01:06:45;;;;;;;14.05;10.70;;;6.10;99.90;;;;;;5029539;28;20609;-50
2022/01/25 01:09:12;;;;;;;15.45;10.40;;;6.10;99.90;;;;;;5030550;28;20187;-51
2022/01/25 01:11:50;;;;;;;16.67;11.30;;;6.10;99.90;;;;;;5030285;28;20642;-48
2022/01/25 01:17:19;;;;;;;15.15;10.82;;;6.10;99.90;;;;;;5030481;28;20218;-50
2022/01/25 01:30:57;;;;;;;16.58;11.65;;;5.80;99.90;;;;;;5031676;28;20671;-49
2022/01/25 01:44:26;;;;;;;14.60;10.63;;;5.90;99.90;;;;;;5027605;28;20260;-55
2022/01/25 01:49:22;;;;;;;18.20;11.23;;;5.70;99.90;;;;;;5030632;28;20221;-51
2022/01/25 01:51:49;;;;;;;16.33;11.50;;;5.70;99.90;;;;;;5042167;28;20565;-51
2022/01/25 01:54:15;;;;;;;16.73;12.07;;;5.70;99.90;;;;;;5029701;28;20183;-52
2022/01/25 01:56:43;;;;;;;16.90;11.95;;;5.60;99.90;;;;;;5027113;28;20207;-47
2022/01/25 01:59:14;;;;;;;16.33;10.63;;;5.70;99.90;;;;;;5029183;28;20187;-52
2022/01/25 02:01:42;;;;;;;16.90;11.00;;;5.60;99.90;;;;;;5023854;28;20237;-52
2022/01/25 02:04:11;;;;;;;19.52;11.38;;;5.50;99.90;;;;;;5029006;28;20779;-51
2022/01/25 02:06:36;;;;;;;17.60;10.95;;;5.50;99.90;;;;;;5027187;28;20201;-49
2022/01/25 02:09:05;;;;;;;17.20;10.57;;;5.50;99.90;;;;;;5029941;28;20277;-54
2022/01/25 02:11:31;;;;;;;15.85;9.38;;;5.50;99.90;;;;;;5031484;28;20203;-52
2022/01/25 02:14:02;;;;;;;16.20;11.77;;;5.50;99.90;;;;;;5037233;28;20185;-54
2022/01/25 02:24:25;;;;;;;14.00;9.63;;;5.60;99.90;;;;;;5041798;28;20201;-51
2022/01/25 02:26:55;;;;;;;15.53;8.90;;;5.50;99.90;;;;;;5035933;28;20191;-52
2022/01/25 02:29:20;;;;;;;14.35;9.40;;;5.50;99.90;;;;;;5039301;28;20584;-51
2022/01/25 02:31:46;;;;;;;15.73;10.73;;;5.50;99.90;;;;;;5044487;28;20186;-54
2022/01/25 02:34:12;;;;;;;14.80;9.90;;;5.50;99.90;;;;;;5028384;28;20194;-53
2022/01/25 02:36:38;;;;;;;12.68;9.23;;;5.50;99.90;;;;;;5028622;28;20288;-51
2022/01/25 02:39:03;;;;;;;16.73;10.07;;;5.50;99.90;;;;;;5030031;28;20187;-53
2022/01/25 02:41:29;;;;;;;13.83;9.90;;;5.60;99.90;;;;;;5028257;28;20665;-52
2022/01/25 02:43:56;;;;;;;14.97;9.87;;;5.60;99.90;;;;;;5032700;28;20605;-51
2022/01/25 02:48:29;;;;;;;15.35;9.70;;;5.50;99.90;;;;;;5027170;28;20240;-51
2022/01/25 02:49:10;;;;;;;14.75;10.02;;;5.60;99.90;;;;;;5044035;28;20193;-52
2022/01/25 02:51:47;;;;;;;14.00;10.57;;;5.60;99.90;;;;;;5018364;28;20575;-53
2022/01/25 02:54:14;;;;;;;13.93;9.75;;;5.60;99.90;;;;;;5032760;28;20186;-53
2022/01/25 02:56:42;;;;;;;14.88;9.75;;;5.60;99.90;;;;;;5021995;28;20210;-52
2022/01/25 02:59:09;;;;;;;13.68;9.68;;;5.60;99.90;;;;;;5025992;28;20231;-51
2022/01/25 03:01:36;;;;;;;15.32;9.93;;;5.60;99.90;;;;;;5028926;28;20186;-51
2022/01/25 03:04:02;;;;;;;14.65;9.80;;;5.60;99.90;;;;;;5028004;28;20222;-54
2022/01/25 03:06:27;;;;;;;14.40;9.60;;;5.60;99.90;;;;;;5029008;28;20183;-51
2022/01/25 03:08:54;;;;;;;14.87;9.97;;;5.60;99.90;;;;;;5029845;28;20437;-53
2022/01/25 03:11:22;;;;;;;13.57;9.63;;;5.70;99.90;;;;;;5033080;28;20496;-49
2022/01/25 03:16:34;;;;;;;13.05;8.73;;;5.70;99.90;;;;;;5028669;28;20538;-52
2022/01/25 03:19:03;;;;;;;15.60;9.57;;;5.70;99.90;;;;;;5031318;28;20186;-50
2022/01/25 03:23:56;;;;;;;15.90;8.67;;;5.70;99.90;;;;;;5040850;28;20196;-53
2022/01/25 03:26:22;;;;;;;11.48;7.65;;;5.70;99.90;;;;;;5031889;28;20529;-52
2022/01/25 03:28:49;;;;;;;14.27;8.82;;;5.70;99.90;;;;;;5029707;28;20191;-50
2022/01/25 03:31:15;;;;;;;11.82;7.40;;;5.70;99.90;;;;;;5031167;28;20213;-52
2022/01/25 03:33:41;;;;;;;14.07;9.37;;;5.60;99.90;;;;;;5028085;28;20217;-50
2022/01/25 03:36:07;;;;;;;14.55;8.65;;;5.60;99.90;;;;;;5030292;28;20449;-54
2022/01/25 03:38:38;;;;;;;14.07;9.15;;;5.60;99.90;;;;;;5034261;28;20234;-53
2022/01/25 03:41:06;;;;;;;14.48;8.82;;;5.60;99.90;;;;;;5031436;28;20218;-53
2022/01/25 03:43:32;;;;;;;11.38;8.45;;;5.60;99.90;;;;;;5038111;28;20178;-53
2022/01/25 03:46:03;;;;;;;12.02;7.93;;;5.60;99.90;;;;;;5042631;28;20178;-52
2022/01/25 03:50:54;;;;;;;12.57;7.90;;;5.50;99.90;;;;;;5048123;28;20281;-50
2022/01/25 03:53:20;;;;;;;14.27;8.60;;;5.50;99.90;;;;;;5034224;28;20234;-50
2022/01/25 03:55:47;;;;;;;14.02;7.93;;;5.50;99.90;;;;;;5041048;28;20187;-50
2022/01/25 03:58:13;;;;;;;10.55;7.10;;;5.40;99.90;;;;;;5034904;28;20203;-53
2022/01/25 04:00:40;;;;;;;11.38;7.55;;;5.40;99.90;;;;;;5032096;28;20187;-53
2022/01/25 04:03:13;;;;;;;12.77;7.93;;;5.40;99.90;;;;;;5039876;28;20210;-50
2022/01/25 04:08:08;;;;;;;13.82;7.57;;;5.40;99.90;;;;;;5038226;28;20183;-53
2022/01/25 04:10:34;;;;;;;13.02;8.32;;;5.30;99.90;;;;;;5042167;28;20193;-48
2022/01/25 04:12:59;;;;;;;9.67;7.10;;;5.40;99.90;;;;;;5034239;28;20186;-52
2022/01/25 04:15:25;;;;;;;10.67;7.30;;;5.30;99.90;;;;;;5039183;28;20189;-55
2022/01/25 04:18:01;;;;;;;10.43;7.65;;;5.20;99.90;;;;;;5033960;28;20206;-50
2022/01/25 04:20:31;;;;;;;10.82;6.95;;;5.30;99.90;;;;;;5030717;28;20215;-49
2022/01/25 04:25:41;;;;;;;10.88;7.35;;;5.20;99.90;;;;;;5029707;28;20185;-50
2022/01/25 04:28:07;;;;;;;11.60;8.30;;;5.30;99.90;;;;;;5045457;28;20195;-50
2022/01/25 04:30:33;;;;;;;10.47;7.00;;;5.30;99.90;;;;;;5031679;28;20436;-51
2022/01/25 04:33:02;;;;;;;9.83;7.03;;;5.30;99.90;;;;;;5042139;28;20187;-53
2022/01/25 04:35:44;;;;;;;10.25;6.82;;;5.30;99.90;;;;;;5029726;28;20783;-59
2022/01/25 04:49:20;;;;;;;10.85;7.28;;;5.30;99.90;;;;;;5039389;28;20186;-53
2022/01/25 04:56:57;;;;;;;9.77;6.53;;;5.30;99.90;;;;;;5029769;28;20217;-51
2022/01/25 04:59:33;;;;;;;9.50;6.72;;;5.30;99.90;;;;;;5029848;28;20240;-51
2022/01/25 05:02:05;;;;;;;10.02;6.57;;;5.30;99.90;;;;;;5030553;28;20177;-50
2022/01/25 05:04:37;;;;;;;10.43;6.40;;;5.30;99.90;;;;;;5034766;28;20178;-51
2022/01/25 05:09:53;;;;;;;12.13;8.10;;;5.30;99.90;;;;;;5029602;28;20663;-53
2022/01/25 05:12:28;;;;;;;10.38;7.38;;;5.30;99.90;;;;;;5026636;28;20657;-53
2022/01/25 05:15:01;;;;;;;10.43;6.95;;;5.40;99.90;;;;;;5028280;28;20788;-55
2022/01/25 05:17:39;;;;;;;11.23;7.15;;;5.40;99.90;;;;;;5034933;28;20337;-55
2022/01/25 05:22:51;;;;;;;11.75;7.95;;;5.30;99.90;;;;;;5032522;28;20310;-55
2022/01/25 05:25:17;;;;;;;10.40;7.10;;;5.30;99.90;;;;;;5030853;28;20254;-53
2022/01/25 05:27:42;;;;;;;12.70;8.20;;;5.20;99.90;;;;;;5028359;28;20353;-54
2022/01/25 05:30:09;;;;;;;11.10;7.60;;;5.30;99.90;;;;;;5024515;28;20190;-53
2022/01/25 05:32:34;;;;;;;13.05;8.05;;;5.20;99.90;;;;;;5029882;28;20183;-53
2022/01/25 05:35:01;;;;;;;12.80;7.87;;;5.30;99.90;;;;;;5029078;28;20261;-50
2022/01/25 05:37:27;;;;;;;10.63;7.50;;;5.30;99.90;;;;;;5026601;28;20214;-54
2022/01/25 05:39:53;;;;;;;12.97;8.03;;;5.30;99.90;;;;;;5028939;28;20178;-53
2022/01/25 05:42:30;;;;;;;14.20;8.40;;;5.30;99.90;;;;;;5033465;28;20183;-53
2022/01/25 05:45:00;;;;;;;12.65;8.10;;;5.20;99.90;;;;;;5030393;28;20429;-53
2022/01/25 05:47:30;;;;;;;12.27;8.50;;;5.30;99.90;;;;;;5036796;28;20213;-55
2022/01/25 05:49:57;;;;;;;13.38;9.43;;;5.30;99.90;;;;;;5041487;28;20178;-51
2022/01/25 05:52:23;;;;;;;16.33;8.50;;;5.20;99.90;;;;;;5027561;28;20238;-50
2022/01/25 05:54:48;;;;;;;14.20;9.20;;;5.30;99.90;;;;;;5027088;28;20696;-54
2022/01/25 05:57:14;;;;;;;13.27;9.00;;;5.30;99.90;;;;;;5032154;28;20948;-51
2022/01/25 05:59:40;;;;;;;16.27;9.33;;;5.20;99.90;;;;;;5043916;28;20182;-54
2022/01/25 06:02:06;;;;;;;11.17;8.47;;;5.20;99.90;;;;;;5032668;28;20191;-52
2022/01/25 06:04:32;;;;;;;14.10;8.85;;;5.20;99.90;;;;;;5029933;28;20183;-52
2022/01/25 06:06:57;;;;;;;13.70;8.75;;;5.10;99.90;;;;;;5029467;28;20195;-53
2022/01/25 06:09:26;;;;;;;16.93;9.70;;;5.00;99.90;;;;;;5040270;28;20198;-48
2022/01/25 06:11:53;;;;;;;13.40;8.98;;;5.00;99.90;;;;;;5029024;28;20183;-53
2022/01/25 06:14:19;;;;;;;14.43;9.25;;;5.00;99.90;;;;;;5032319;28;20175;-49
2022/01/25 06:16:44;;;;;;;12.83;8.77;;;4.90;99.90;;;;;;5033966;28;20747;-52
2022/01/25 06:19:10;;;;;;;15.17;10.10;;;5.00;99.90;;;;;;5040395;28;20488;-50
2022/01/25 06:21:36;;;;;;;14.83;9.67;;;5.00;99.90;;;;;;5044700;28;20214;-49
2022/01/25 06:24:01;;;;;;;15.07;10.30;;;4.90;99.90;;;;;;5042842;28;20186;-51
2022/01/25 06:26:27;;;;;;;15.07;9.33;;;4.90;99.90;;;;;;5049814;28;20178;-53
2022/01/25 06:28:52;;;;;;;14.93;9.43;;;4.90;99.90;;;;;;5040732;28;20563;-50
2022/01/25 06:31:18;;;;;;;15.50;9.87;;;4.90;99.90;;;;;;5042788;28;20253;-50
2022/01/25 06:33:45;;;;;;;15.75;9.85;;;4.90;99.90;;;;;;5029553;28;20189;-49
2022/01/25 06:36:12;;;;;;;14.10;8.98;;;4.80;99.90;;;;;;5049769;28;20187;-52
2022/01/25 06:38:37;;;;;;;16.70;10.05;;;4.80;99.90;;;;;;5034456;28;20271;-52
2022/01/25 06:41:03;;;;;;;16.03;9.07;;;4.80;99.90;;;;;;5029428;28;20191;-51
2022/01/25 06:43:29;;;;;;;15.63;9.57;;;4.80;99.90;;;;;;5029365;28;20787;-48
2022/01/25 06:45:59;;;;;;;15.90;10.20;;;4.80;99.90;;;;;;5028669;28;20210;-51
2022/01/25 06:48:24;;;;;;;15.40;9.73;;;4.80;99.90;;;;;;5042961;28;20244;-52
2022/01/25 06:50:50;;;;;;;14.37;9.20;;;4.80;99.90;;;;;;5030550;28;20182;-53
2022/01/25 06:53:16;;;;;;;14.10;9.30;;;4.80;99.90;;;;;;5027702;28;20253;-51
2022/01/25 06:55:41;;;;;;;14.33;8.77;;;4.80;99.90;;;;;;5029298;28;20226;-52
2022/01/25 06:58:08;;;;;;;14.20;9.10;;;4.80;99.90;;;;;;5028996;28;20593;-52
2022/01/25 07:00:34;;;;;;;14.75;9.10;;;4.70;99.90;;;;;;5028484;28;20428;-50
2022/01/25 07:03:00;;;;;;;12.63;8.05;;;4.80;99.90;;;;;;5022877;28;20642;-49
2022/01/25 07:05:26;;;;;;;14.13;8.77;;;4.80;99.90;;;;;;5022853;28;20182;-53
2022/01/25 07:07:52;;;;;;;16.25;9.35;;;4.80;99.90;;;;;;5031186;28;20213;-56
2022/01/25 07:10:18;;;;;;;15.43;9.20;;;4.90;99.90;;;;;;5032280;28;20266;-50
2022/01/25 07:12:44;;;;;;;13.90;8.37;;;4.90;99.90;;;;;;5046481;28;20277;-50
2022/01/25 07:15:09;;;;;;;17.70;9.53;;;4.90;99.90;;;;;;5046942;28;20236;-48
2022/01/25 07:17:35;;;;;;;14.50;9.50;;;4.90;99.90;;;;;;5041874;28;20206;-54
2022/01/25 07:20:05;;;;;;;14.37;9.97;;;4.90;99.90;;;;;;5038152;28;20640;-54
2022/01/25 07:22:30;;;;;;;16.00;9.50;;;4.90;99.90;;;;;;5046445;28;20190;-54
2022/01/25 07:24:56;;;;;;;15.67;9.57;;;4.90;99.90;;;;;;5049830;28;20213;-50
2022/01/25 07:27:21;;;;;;;17.27;9.87;;;4.90;99.90;;;;;;5039563;28;20186;-50
2022/01/25 07:29:47;;;;;;;16.37;10.23;;;4.90;99.90;;;;;;5036762;28;20214;-51
2022/01/25 07:32:13;;;;;;;17.83;10.00;;;4.90;99.90;;;;;;5054974;28;20221;-47
2022/01/25 07:34:38;;;;;;;15.37;10.13;;;4.90;99.90;;;;;;5035945;28;20420;-49
2022/01/25 07:37:04;;;;;;;16.30;10.10;;;4.90;99.90;;;;;;5035334;28;20256;-52
2022/01/25 07:39:30;;;;;;;14.50;9.40;;;4.90;99.90;;;;;;5046793;28;20301;-48
2022/01/25 07:41:58;;;;;;;16.97;10.50;;;4.80;99.90;;;;;;5034434;28;20183;-48
2022/01/25 07:44:28;;;;;;;17.02;10.57;;;4.90;99.90;;;;;;5032839;28;20183;-52
2022/01/25 07:46:57;;;;;;;14.55;9.80;;;4.90;99.90;;;;;;5052433;28;20232;-53
2022/01/25 07:49:26;;;;;;;16.17;11.38;;;5.00;99.90;;;;;;5054820;28;20213;-51
2022/01/25 07:51:52;;;;;;;20.20;11.50;;;5.00;99.90;;;;;;5047183;28;20301;-51
2022/01/25 07:54:18;;;;;;;17.25;10.90;;;5.00;99.90;;;;;;5033953;28;20560;-50
2022/01/25 07:56:44;;;;;;;17.60;11.10;;;5.00;99.90;;;;;;5038370;28;20181;-46
2022/01/25 07:59:09;;;;;;;17.00;10.60;;;5.00;99.90;;;;;;5053091;28;20186;-50
2022/01/25 08:01:36;;;;;;;16.83;10.43;;;5.00;99.90;;;;;;5039260;28;20213;-53
2022/01/25 08:04:02;;;;;;;19.43;10.87;;;5.00;99.90;;;;;;5052586;28;20536;-48
2022/01/25 08:06:27;;;;;;;17.73;11.82;;;5.10;99.90;;;;;;5054417;28;20273;-47
2022/01/25 08:08:53;;;;;;;17.33;11.20;;;5.10;99.90;;;;;;5046980;28;20281;-51
2022/01/25 08:11:20;;;;;;;19.17;12.40;;;5.10;99.90;;;;;;5035161;28;20198;-52
2022/01/25 08:13:49;;;;;;;22.17;12.15;;;5.10;99.90;;;;;;5035035;28;20229;-52
2022/01/25 08:16:16;;;;;;;19.35;13.35;;;5.10;99.90;;;;;;5032588;28;20183;-49
2022/01/25 08:18:42;;;;;;;22.35;13.05;;;5.20;99.90;;;;;;5033405;28;20203;-51
2022/01/25 08:21:07;;;;;;;19.17;11.53;;;5.30;99.90;;;;;;5033586;28;20209;-49
2022/01/25 08:23:33;;;;;;;20.50;11.60;;;5.30;99.90;;;;;;5031676;28;20892;-53
2022/01/25 08:25:58;;;;;;;20.17;12.40;;;5.30;99.90;;;;;;5031027;28;20159;-49
2022/01/25 08:28:24;;;;;;;19.90;11.50;;;5.30;99.90;;;;;;5030834;28;20768;-51
2022/01/25 08:30:49;;;;;;;18.57;12.70;;;5.30;99.90;;;;;;5030825;28;20203;-51
2022/01/25 08:33:15;;;;;;;19.03;13.30;;;5.20;99.90;;;;;;5029435;28;20271;-47
2022/01/25 08:35:41;;;;;;;20.43;12.60;;;5.20;99.90;;;;;;5031270;28;20167;-52
2022/01/25 08:38:06;;;;;;;18.70;11.77;;;5.30;99.90;;;;;;5030539;28;20672;-48
2022/01/25 08:40:33;;;;;;;18.93;12.13;;;5.30;99.90;;;;;;5031148;28;20227;-47
2022/01/25 08:42:59;;;;;;;18.80;11.82;;;5.30;99.90;;;;;;5030462;28;20175;-49
2022/01/25 08:45:25;;;;;;;20.05;12.90;;;5.20;99.90;;;;;;5039345;28;20178;-49
2022/01/25 08:47:51;;;;;;;16.75;11.15;;;5.30;99.90;;;;;;5050429;28;20847;-53
2022/01/25 08:50:16;;;;;;;17.70;11.70;;;5.30;99.90;;;;;;5044974;28;20191;-48
2022/01/25 08:52:42;;;;;;;19.23;13.27;;;5.30;99.90;;;;;;5030599;28;20310;-51
2022/01/25 08:55:08;;;;;;;17.57;11.80;;;5.30;99.90;;;;;;5037771;28;20253;-52
2022/01/25 08:57:34;;;;;;;19.60;12.20;;;5.30;99.90;;;;;;5036130;28;20207;-49
2022/01/25 08:59:59;;;;;;;21.13;13.20;;;5.30;99.90;;;;;;5030383;28;20429;-50
2022/01/25 09:02:25;;;;;;;18.90;12.83;;;5.40;99.90;;;;;;5028385;28;20303;-52
2022/01/25 09:04:51;;;;;;;20.80;12.70;;;5.30;99.90;;;;;;5030052;28;20421;-51
2022/01/25 09:07:16;;;;;;;19.77;12.20;;;5.30;99.90;;;;;;5029775;28;20187;-50
2022/01/25 09:09:42;;;;;;;18.57;11.50;;;5.40;99.90;;;;;;5030432;28;20183;-50
2022/01/25 09:12:09;;;;;;;17.13;11.23;;;5.40;99.90;;;;;;5029724;28;20178;-50
2022/01/25 09:14:35;;;;;;;21.70;11.45;;;5.50;99.90;;;;;;5030171;28;20448;-48
2022/01/25 09:17:01;;;;;;;18.07;11.53;;;5.50;99.90;;;;;;5030213;28;20203;-49
2022/01/25 09:19:26;;;;;;;18.43;11.83;;;5.50;99.90;;;;;;5029939;28;21005;-48
2022/01/25 09:21:52;;;;;;;19.30;11.80;;;5.40;99.90;;;;;;5030880;28;20175;-51
2022/01/25 09:24:17;;;;;;;16.77;11.43;;;5.40;99.90;;;;;;5029872;28;20205;-50
2022/01/25 09:26:43;;;;;;;20.20;13.17;;;5.40;99.90;;;;;;5030344;28;20183;-50
2022/01/25 09:29:09;;;;;;;18.03;11.80;;;5.40;99.90;;;;;;5034829;28;20649;-50
2022/01/25 09:31:34;;;;;;;19.13;11.90;;;5.40;99.90;;;;;;5038669;28;20175;-50
2022/01/25 09:34:00;;;;;;;19.07;12.90;;;5.40;99.90;;;;;;5030669;28;20197;-46
2022/01/25 09:36:26;;;;;;;20.63;12.77;;;5.40;99.90;;;;;;5045248;28;20444;-49
2022/01/25 09:38:56;;;;;;;20.30;11.60;;;5.40;99.90;;;;;;5041543;28;20289;-53
2022/01/25 09:41:23;;;;;;;18.65;12.55;;;5.40;99.90;;;;;;5050061;28;20190;-52
2022/01/25 09:43:49;;;;;;;20.23;11.98;;;5.40;99.90;;;;;;5043337;28;20187;-52
2022/01/25 09:46:15;;;;;;;16.97;11.03;;;5.30;99.90;;;;;;5032756;28;20759;-49
2022/01/25 09:48:41;;;;;;;19.90;12.20;;;5.30;99.90;;;;;;5028824;28;20546;-52
2022/01/25 09:51:11;;;;;;;20.63;12.50;;;5.30;99.90;;;;;;5029095;28;20183;-48
2022/01/25 09:53:38;;;;;;;22.17;13.00;;;5.30;99.90;;;;;;5023439;28;20230;-52
2022/01/25 09:56:04;;;;;;;17.52;11.77;;;5.20;99.90;;;;;;5028706;28;20195;-48
2022/01/25 09:58:30;;;;;;;20.63;11.93;;;5.20;99.90;;;;;;5027670;28;20203;-51
2022/01/25 10:01:00;;;;;;;21.67;12.47;;;5.20;99.90;;;;;;5029086;28;20520;-53
2022/01/25 10:03:31;;;;;;;23.23;12.88;;;5.20;99.90;;;;;;5029385;28;20576;-51
2022/01/25 10:06:00;;;;;;;18.60;11.93;;;5.20;99.90;;;;;;5031021;28;20175;-52
2022/01/25 10:08:30;;;;;;;19.73;12.77;;;5.20;99.90;;;;;;5028835;28;20187;-51
2022/01/25 10:11:07;;;;;;;20.77;12.32;;;5.30;99.90;;;;;;5031340;28;20243;-52
2022/01/25 10:13:38;;;;;;;19.60;12.20;;;5.20;99.90;;;;;;5041381;28;20185;-49
2022/01/25 10:16:15;;;;;;;18.55;11.60;;;5.20;99.90;;;;;;5038002;28;20193;-52
2022/01/25 10:18:47;;;;;;;17.98;12.15;;;5.20;99.90;;;;;;5036735;28;20227;-50
2022/01/25 10:21:24;;;;;;;19.35;12.93;;;5.20;99.90;;;;;;5031765;28;20348;-52
2022/01/25 10:24:15;;;;;;;19.98;12.60;;;5.20;99.90;;;;;;5042642;28;20187;-50
2022/01/25 10:26:47;;;;;;;21.88;12.65;;;5.20;99.90;;;;;;5037391;28;20197;-51
2022/01/25 10:29:16;;;;;;;21.00;13.68;;;5.20;99.90;;;;;;5040523;28;20281;-51
2022/01/25 10:31:52;;;;;;;19.67;12.80;;;5.30;99.90;;;;;;5027731;28;20187;-47
2022/01/25 10:34:30;;;;;;;17.80;12.23;;;5.30;99.90;;;;;;5029865;28;20198;-50
2022/01/25 10:36:57;;;;;;;18.25;11.40;;;5.30;99.90;;;;;;5032857;28;20629;-52
2022/01/25 10:39:34;;;;;;;17.30;12.18;;;5.20;99.90;;;;;;5048767;28;20205;-48
2022/01/25 10:42:06;;;;;;;22.55;13.20;;;5.20;99.90;;;;;;5031145;28;20244;-52
2022/01/25 10:44:48;;;;;;;20.23;12.02;;;5.10;99.90;;;;;;5039866;28;20193;-52
2022/01/25 10:47:14;;;;;;;18.30;11.10;;;5.10;99.90;;;;;;5033771;28;20190;-52
2022/01/25 10:49:48;;;;;;;16.38;10.57;;;5.10;99.90;;;;;;5034876;28;20672;-52
2022/01/25 10:52:25;;;;;;;20.13;11.63;;;5.00;99.90;;;;;;5032513;28;20222;-48
2022/01/25 10:54:50;;;;;;;18.75;11.40;;;5.10;99.90;;;;;;5034946;28;20183;-50
2022/01/25 10:57:18;;;;;;;16.80;9.60;;;5.00;99.90;;;;;;5019047;28;20224;-50
2022/01/25 10:59:57;;;;;;;15.23;9.75;;;5.00;99.90;;;;;;5028863;28;20194;-53
2022/01/25 11:02:22;;;;;;;16.60;9.90;;;5.00;99.90;;;;;;5033754;28;20230;-50
2022/01/25 11:04:48;;;;;;;16.30;8.60;;;4.90;99.90;;;;;;5035818;28;20187;-50
2022/01/25 11:07:13;;;;;;;16.97;9.90;;;4.90;99.90;;;;;;5030073;28;20235;-53
2022/01/25 11:09:44;;;;;;;17.20;9.53;;;4.80;99.90;;;;;;5027960;28;20186;-53
2022/01/25 11:12:13;;;;;;;15.85;9.55;;;4.80;99.90;;;;;;5031952;28;20217;-50
2022/01/25 11:14:57;;;;;;;17.83;9.40;;;4.90;99.90;;;;;;5032580;28;20226;-53
2022/01/25 11:17:28;;;;;;;15.10;8.75;;;4.90;99.90;;;;;;5032073;28;20205;-50
2022/01/25 11:19:54;;;;;;;14.55;8.77;;;4.90;99.90;;;;;;5031240;28;20187;-50
2022/01/25 11:22:20;;;;;;;14.15;8.80;;;4.90;99.90;;;;;;5035750;28;20194;-50
2022/01/25 11:25:01;;;;;;;17.07;9.53;;;5.00;99.90;;;;;;5032885;28;20237;-53
2022/01/25 11:27:29;;;;;;;15.75;9.13;;;5.00;99.90;;;;;;5028440;28;20416;-47
2022/01/25 11:30:00;;;;;;;16.42;10.30;;;5.10;99.90;;;;;;5029254;28;20194;-52
2022/01/25 11:32:31;;;;;;;17.50;10.07;;;5.10;99.90;;;;;;5042256;28;20225;-48
2022/01/25 11:34:58;;;;;;;16.25;9.57;;;5.10;99.90;;;;;;5027340;28;20249;-50
2022/01/25 11:37:37;;;;;;;16.90;9.90;;;5.20;99.90;;;;;;5032708;28;20201;-51
2022/01/25 11:40:20;;;;;;;16.02;10.25;;;5.10;99.90;;;;;;5032542;28;20202;-48
2022/01/25 11:42:51;;;;;;;18.52;11.27;;;5.10;99.90;;;;;;5028675;28;20229;-46
2022/01/25 11:45:39;;;;;;;16.70;10.63;;;5.20;99.90;;;;;;5023557;28;20214;-48
2022/01/25 11:48:06;;;;;;;17.95;10.80;;;5.30;99.90;;;;;;5025244;28;20201;-51
2022/01/25 11:50:37;;;;;;;18.05;10.05;;;5.30;99.90;;;;;;5029671;28;20300;-52
2022/01/25 11:53:11;;;;;;;15.75;9.18;;;5.30;99.90;;;;;;5047798;28;20237;-51
2022/01/25 11:55:47;;;;;;;17.83;10.63;;;5.40;99.90;;;;;;5033683;28;20264;-49
2022/01/25 11:58:30;;;;;;;16.23;10.45;;;5.40;99.90;;;;;;5033490;28;20218;-52
2022/01/25 12:01:00;;;;;;;15.15;9.75;;;5.50;99.90;;;;;;5022662;28;20582;-54
2022/01/25 12:03:32;;;;;;;17.98;9.40;;;5.40;99.90;;;;;;5043711;28;20178;-54
2022/01/25 12:06:17;;;;;;;16.20;9.95;;;5.50;99.90;;;;;;5036410;28;20197;-51
2022/01/25 12:11:47;;;;;;;15.98;9.98;;;5.40;99.90;;;;;;5051938;28;20540;-53
2022/01/25 12:14:20;;;;;;;18.55;10.48;;;5.40;99.90;;;;;;5051002;28;20277;-56
2022/01/25 12:17:02;;;;;;;15.63;10.20;;;5.40;99.90;;;;;;5039750;28;20263;-51
2022/01/25 12:19:30;;;;;;;16.35;9.82;;;5.40;99.90;;;;;;5033473;28;20187;-51
2022/01/25 12:22:05;;;;;;;15.55;9.10;;;5.30;99.90;;;;;;5026413;28;20236;-48
2022/01/25 12:24:44;;;;;;;14.55;9.23;;;5.30;99.90;;;;;;5037257;28;20476;-48
2022/01/25 12:27:24;;;;;;;15.73;8.15;;;5.30;99.90;;;;;;5010571;28;20183;-50
2022/01/25 12:30:04;;;;;;;15.00;7.55;;;5.30;99.90;;;;;;5015858;28;20843;-50
2022/01/25 12:32:36;;;;;;;12.85;7.63;;;5.30;99.90;;;;;;5011750;28;20187;-51
2022/01/25 12:35:01;;;;;;;12.50;7.50;;;5.20;99.90;;;;;;5013293;28;20195;-55
2022/01/25 12:37:46;;;;;;;14.67;8.53;;;5.10;99.90;;;;;;5015992;28;20207;-55
2022/01/25 12:40:26;;;;;;;15.63;8.80;;;5.10;99.90;;;;;;5014211;28;20255;-52
2022/01/25 12:43:02;;;;;;;15.18;8.75;;;5.10;99.90;;;;;;5015443;28;20183;-49
2022/01/25 12:45:33;;;;;;;12.27;8.30;;;5.20;99.90;;;;;;5014145;28;20234;-51
2022/01/25 12:48:06;;;;;;;16.95;8.77;;;5.20;99.90;;;;;;5012799;28;20204;-53
2022/01/25 12:50:36;;;;;;;13.02;8.13;;;5.20;99.90;;;;;;5019307;28;20926;-54
2022/01/25 12:53:03;;;;;;;20.42;12.52;;;5.20;99.90;;;;;;5029836;28;20282;-51
2022/01/25 12:55:34;;;;;;;28.95;24.05;;;5.20;99.90;;;;;;5043659;28;20186;-47
2022/01/25 12:58:00;;;;;;;31.38;24.30;;;5.10;99.90;;;;;;5036511;28;20615;-48
2022/01/25 13:00:33;;;;;;;18.90;12.52;;;4.90;99.90;;;;;;5050859;28;20222;-49
2022/01/25 13:03:14;;;;;;;15.98;10.80;;;4.70;99.90;;;;;;5025336;28;20180;-51
2022/01/25 13:05:45;;;;;;;16.20;10.75;;;4.60;99.90;;;;;;5039777;28;20231;-53
2022/01/25 13:08:27;;;;;;;27.00;16.48;;;4.60;99.90;;;;;;5036727;28;20191;-51
2022/01/25 13:11:12;;;;;;;22.10;14.40;;;4.50;99.90;;;;;;5030704;28;21028;-52
2022/01/25 13:16:40;;;;;;;16.10;8.98;;;4.40;99.90;;;;;;5027548;28;20304;-52
2022/01/25 13:19:06;;;;;;;14.70;9.48;;;4.40;99.90;;;;;;5030488;28;20221;-55
2022/01/25 13:21:43;;;;;;;18.05;9.75;;;4.30;99.90;;;;;;5030276;28;20197;-50
2022/01/25 13:24:11;;;;;;;19.70;10.50;;;4.30;99.90;;;;;;5031301;28;20171;-53
2022/01/25 13:26:52;;;;;;;22.05;12.75;;;4.40;99.90;;;;;;5030899;28;20181;-48
2022/01/25 13:32:16;;;;;;;18.25;9.57;;;4.30;99.90;;;;;;5026456;28;20735;-53
2022/01/25 13:34:42;;;;;;;18.33;11.30;;;4.30;99.90;;;;;;5030183;28;20194;-48
2022/01/25 13:37:21;;;;;;;20.23;11.18;;;4.30;99.90;;;;;;5021653;28;20199;-54
2022/01/25 13:39:56;;;;;;;17.35;10.90;;;4.30;99.90;;;;;;5049471;28;20189;-49
2022/01/25 13:42:31;;;;;;;21.33;11.15;;;4.40;99.90;;;;;;5048047;28;20694;-52
2022/01/25 13:48:03;;;;;;;17.55;10.10;;;4.30;99.90;;;;;;5050106;28;20240;-51
2022/01/25 13:50:29;;;;;;;19.25;10.88;;;4.30;99.90;;;;;;5028648;28;20191;-58
2022/01/25 13:52:55;;;;;;;20.58;10.35;;;4.30;99.90;;;;;;5034191;28;20281;-50
2022/01/25 13:55:21;;;;;;;21.53;11.50;;;4.30;99.90;;;;;;5042243;28;20182;-54
2022/01/25 13:57:46;;;;;;;18.80;11.40;;;4.40;99.90;;;;;;5044252;28;20202;-49
2022/01/25 14:00:13;;;;;;;20.17;11.63;;;4.40;99.90;;;;;;5039432;28;20265;-50
2022/01/25 14:02:39;;;;;;;26.10;13.07;;;4.40;99.90;;;;;;5030206;28;20236;-52
2022/01/25 14:05:07;;;;;;;21.95;12.10;;;4.50;99.90;;;;;;5029683;28;20259;-52
2022/01/25 14:07:37;;;;;;;19.13;11.05;;;4.50;99.90;;;;;;5043948;28;20182;-48
2022/01/25 14:10:10;;;;;;;22.85;12.45;;;4.40;99.90;;;;;;5034579;28;20278;-52
2022/01/25 14:23:45;;;;;;;25.00;11.25;;;4.30;99.90;;;;;;5039970;28;20240;-51
2022/01/25 14:26:11;;;;;;;20.55;11.27;;;4.30;99.90;;;;;;5048845;28;20265;-52
2022/01/25 14:28:44;;;;;;;22.48;12.05;;;4.30;99.90;;;;;;5033126;28;20186;-53
2022/01/25 14:31:21;;;;;;;20.67;11.20;;;4.30;99.90;;;;;;5046535;28;20209;-52
2022/01/25 14:33:57;;;;;;;22.15;11.70;;;4.40;99.90;;;;;;5038910;28;20183;-54
2022/01/25 14:36:26;;;;;;;20.60;11.48;;;4.40;99.90;;;;;;5021314;28;20271;-49
2022/01/25 14:38:54;;;;;;;21.67;12.07;;;4.40;99.90;;;;;;5035546;28;20325;-50
2022/01/25 14:41:30;;;;;;;19.45;11.20;;;4.40;99.90;;;;;;5042929;28;20214;-48
2022/01/25 14:44:13;;;;;;;22.35;10.70;;;4.40;99.90;;;;;;5042543;28;20201;-53
2022/01/25 14:46:48;;;;;;;19.85;10.02;;;4.40;99.90;;;;;;5029263;28;20193;-53
2022/01/25 14:49:24;;;;;;;20.90;11.20;;;4.40;99.90;;;;;;5040963;28;20327;-51